Time;durP1;ratioP1;P1;durP2;ratioP2;P2;SDS_P1;SDS_P2;PMS_P1;PMS_P2;Temp;Humidity;BMP_temperature;BMP_pressure;BME280_temperature;BME280_humidity;BME280_pressure;Samples;Min_cycle;Max_cycle;Signal;HPM_P1;HPM_P2
2021/04/30 00:00:50;;;;;;;39.67;24.65;;;;;;;;;;5074007;28;20020;-64
2021/04/30 00:03:16;;;;;;;37.40;22.90;;;;;;;;;;5074110;28;20041;-64
2021/04/30 00:05:41;;;;;;;36.63;23.05;;;;;;;;;;5074014;28;20067;-65
2021/04/30 00:08:07;;;;;;;40.38;24.55;;;;;;;;;;5089755;28;20032;-63
2021/04/30 00:10:33;;;;;;;42.65;23.75;;;;;;;;;;5074101;28;20024;-63
2021/04/30 00:12:58;;;;;;;37.40;21.92;;;;;;;;;;5073904;28;20024;-63
2021/04/30 00:15:24;;;;;;;38.72;21.13;;;;;;;;;;5073735;28;20020;-63
2021/04/30 00:17:49;;;;;;;33.92;21.08;;;;;;;;;;5073727;28;20509;-63
2021/04/30 00:20:16;;;;;;;30.50;20.05;;;;;;;;;;5073572;28;20106;-63
2021/04/30 00:22:42;;;;;;;31.60;20.63;;;;;;;;;;5073663;28;20040;-63
2021/04/30 00:25:07;;;;;;;34.97;22.02;;;;;;;;;;5073657;28;20020;-63
2021/04/30 00:27:33;;;;;;;32.70;20.27;;;;;;;;;;5073896;28;20036;-63
2021/04/30 00:29:58;;;;;;;37.88;20.15;;;;;;;;;;5072677;28;20070;-63
2021/04/30 00:32:24;;;;;;;34.65;19.98;;;;;;;;;;5073628;28;20359;-64
2021/04/30 00:34:49;;;;;;;32.28;19.40;;;;;;;;;;5073552;28;20020;-63
2021/04/30 00:37:15;;;;;;;35.08;21.10;;;;;;;;;;5073547;28;20127;-63
2021/04/30 00:39:40;;;;;;;34.10;20.52;;;;;;;;;;5073543;28;20031;-63
2021/04/30 00:42:06;;;;;;;33.60;20.20;;;;;;;;;;5072803;28;20048;-66
2021/04/30 00:44:33;;;;;;;31.95;20.20;;;;;;;;;;5073526;28;20364;-64
2021/04/30 00:46:58;;;;;;;31.35;19.85;;;;;;;;;;5073306;28;20115;-64
2021/04/30 00:49:24;;;;;;;29.77;19.38;;;;;;;;;;5073268;28;20044;-65
2021/04/30 00:51:50;;;;;;;36.95;21.25;;;;;;;;;;5072974;28;20108;-65
2021/04/30 00:54:16;;;;;;;35.30;21.20;;;;;;;;;;5089201;28;20351;-63
2021/04/30 00:56:42;;;;;;;34.58;21.13;;;;;;;;;;5073298;28;20074;-64
2021/04/30 00:59:07;;;;;;;32.30;20.55;;;;;;;;;;5072838;28;20105;-63
2021/04/30 01:01:33;;;;;;;36.53;19.90;;;;;;;;;;5073117;28;20115;-64
2021/04/30 01:03:59;;;;;;;35.55;20.77;;;;;;;;;;5073151;28;20032;-64
2021/04/30 01:06:24;;;;;;;33.63;20.40;;;;;;;;;;5072343;28;20033;-64
2021/04/30 01:08:50;;;;;;;31.10;20.77;;;;;;;;;;5073116;28;20021;-64
2021/04/30 01:11:15;;;;;;;31.25;19.13;;;;;;;;;;5073175;28;20031;-65
2021/04/30 01:13:41;;;;;;;29.58;20.00;;;;;;;;;;5072015;28;20017;-65
2021/04/30 01:16:06;;;;;;;33.10;19.90;;;;;;;;;;5073236;28;20020;-65
2021/04/30 01:18:45;;;;;;;30.27;18.05;;;;;;;;;;5073107;28;20024;-69
2021/04/30 01:21:11;;;;;;;27.05;17.52;;;;;;;;;;5073329;28;20033;-68
2021/04/30 01:23:44;;;;;;;23.88;15.98;;;;;;;;;;5071732;28;20078;-68
2021/04/30 01:26:09;;;;;;;27.20;17.67;;;;;;;;;;5073241;28;20027;-68
2021/04/30 01:28:34;;;;;;;25.60;16.25;;;;;;;;;;5073256;28;20363;-68
2021/04/30 01:31:00;;;;;;;25.95;16.85;;;;;;;;;;5073242;28;20111;-68
2021/04/30 01:33:25;;;;;;;25.30;17.08;;;;;;;;;;5072805;28;20405;-64
2021/04/30 01:35:51;;;;;;;28.20;16.73;;;;;;;;;;5073042;28;20052;-64
2021/04/30 01:38:16;;;;;;;24.35;16.10;;;;;;;;;;5073099;28;20416;-63
2021/04/30 01:40:42;;;;;;;27.83;16.90;;;;;;;;;;5072804;28;20097;-70
2021/04/30 01:43:08;;;;;;;30.20;19.20;;;;;;;;;;5072349;28;20412;-69
2021/04/30 01:45:38;;;;;;;26.85;17.42;;;;;;;;;;5087980;28;20454;-69
2021/04/30 01:48:05;;;;;;;24.35;16.65;;;;;;;;;;5072983;28;20032;-68
2021/04/30 01:50:31;;;;;;;27.33;15.88;;;;;;;;;;5072997;28;20024;-68
2021/04/30 01:52:56;;;;;;;23.88;16.08;;;;;;;;;;5072651;28;20356;-67
2021/04/30 01:55:26;;;;;;;25.05;16.58;;;;;;;;;;5072765;28;20036;-70
2021/04/30 01:57:51;;;;;;;22.45;15.18;;;;;;;;;;5072733;28;20375;-69
2021/04/30 02:00:22;;;;;;;24.80;16.35;;;;;;;;;;5072699;28;20035;-69
2021/04/30 02:02:48;;;;;;;22.10;15.85;;;;;;;;;;5072613;28;20028;-70
2021/04/30 02:05:14;;;;;;;23.15;15.05;;;;;;;;;;5072785;28;20020;-70
2021/04/30 02:07:39;;;;;;;19.98;14.63;;;;;;;;;;5072449;28;20368;-70
2021/04/30 02:10:07;;;;;;;24.17;15.05;;;;;;;;;;5089441;28;20024;-70
2021/04/30 02:12:32;;;;;;;24.70;15.48;;;;;;;;;;5076042;28;20461;-70
2021/04/30 02:14:58;;;;;;;23.15;14.75;;;;;;;;;;5076006;28;20021;-70
2021/04/30 02:17:23;;;;;;;23.13;16.13;;;;;;;;;;5074749;28;20083;-70
2021/04/30 02:19:49;;;;;;;25.92;16.30;;;;;;;;;;5076348;28;20017;-70
2021/04/30 02:22:14;;;;;;;23.35;14.90;;;;;;;;;;5075099;28;20073;-70
2021/04/30 02:24:40;;;;;;;24.10;15.32;;;;;;;;;;5075873;28;20127;-69
2021/04/30 02:27:06;;;;;;;23.55;15.02;;;;;;;;;;5075757;28;20028;-64
2021/04/30 02:29:33;;;;;;;23.15;16.02;;;;;;;;;;5091395;28;20024;-64
2021/04/30 02:31:58;;;;;;;22.58;15.32;;;;;;;;;;5074752;28;20051;-64
2021/04/30 02:34:24;;;;;;;22.23;15.45;;;;;;;;;;5091692;28;20110;-65
2021/04/30 02:36:49;;;;;;;26.95;16.35;;;;;;;;;;5075886;28;20025;-65
2021/04/30 02:39:15;;;;;;;28.88;16.92;;;;;;;;;;5075632;28;20013;-64
2021/04/30 02:41:40;;;;;;;23.83;15.70;;;;;;;;;;5073427;28;20037;-64
2021/04/30 02:44:06;;;;;;;23.15;15.23;;;;;;;;;;5075602;28;20067;-63
2021/04/30 02:46:31;;;;;;;22.15;15.52;;;;;;;;;;5075564;28;20029;-64
2021/04/30 02:49:02;;;;;;;23.48;15.55;;;;;;;;;;5091240;28;20466;-63
2021/04/30 02:51:28;;;;;;;20.95;15.05;;;;;;;;;;5075534;28;20024;-64
2021/04/30 02:53:53;;;;;;;21.33;15.02;;;;;;;;;;5075714;28;20078;-69
2021/04/30 02:56:19;;;;;;;23.63;16.15;;;;;;;;;;5075589;28;20086;-69
2021/04/30 02:58:44;;;;;;;22.75;15.95;;;;;;;;;;5075459;28;20344;-70
2021/04/30 03:01:10;;;;;;;24.50;16.35;;;;;;;;;;5075198;28;20055;-70
2021/04/30 03:03:35;;;;;;;23.05;16.23;;;;;;;;;;5075255;28;20017;-70
2021/04/30 03:06:01;;;;;;;24.92;15.43;;;;;;;;;;5075146;28;20020;-70
2021/04/30 03:08:26;;;;;;;22.88;15.43;;;;;;;;;;5075013;28;20013;-70
2021/04/30 03:10:52;;;;;;;23.70;14.95;;;;;;;;;;5075340;28;20028;-70
2021/04/30 03:13:17;;;;;;;23.42;15.90;;;;;;;;;;5075243;28;20501;-70
2021/04/30 03:15:43;;;;;;;23.80;15.88;;;;;;;;;;5075018;28;20078;-69
2021/04/30 03:18:08;;;;;;;24.02;15.68;;;;;;;;;;5074833;28;20020;-69
2021/04/30 03:20:34;;;;;;;23.50;15.13;;;;;;;;;;5090238;28;20040;-70
2021/04/30 03:22:59;;;;;;;24.38;15.35;;;;;;;;;;5074777;28;20021;-69
2021/04/30 03:25:25;;;;;;;24.77;15.45;;;;;;;;;;5074913;28;20029;-69
2021/04/30 03:27:50;;;;;;;23.08;15.10;;;;;;;;;;5074780;28;20100;-70
2021/04/30 03:30:16;;;;;;;24.38;15.82;;;;;;;;;;5074661;28;20029;-70
2021/04/30 03:32:41;;;;;;;24.05;15.25;;;;;;;;;;5074697;28;20017;-69
2021/04/30 03:35:07;;;;;;;21.30;14.82;;;;;;;;;;5074143;28;20033;-69
2021/04/30 03:37:33;;;;;;;21.35;14.00;;;;;;;;;;5074815;28;20462;-69
2021/04/30 03:39:58;;;;;;;18.58;13.02;;;;;;;;;;5074644;28;20044;-69
2021/04/30 03:42:24;;;;;;;19.27;13.43;;;;;;;;;;5073992;28;20514;-69
2021/04/30 03:44:49;;;;;;;20.88;12.65;;;;;;;;;;5074241;28;20036;-68
2021/04/30 03:47:15;;;;;;;19.45;13.35;;;;;;;;;;5090008;28;20051;-68
2021/04/30 03:49:41;;;;;;;17.40;12.07;;;;;;;;;;5074203;28;20027;-68
2021/04/30 03:52:06;;;;;;;18.63;12.57;;;;;;;;;;5074349;28;20098;-68
2021/04/30 03:54:32;;;;;;;20.23;12.45;;;;;;;;;;5074342;28;20021;-68
2021/04/30 03:56:58;;;;;;;15.98;12.48;;;;;;;;;;5074157;28;20021;-68
2021/04/30 03:59:23;;;;;;;15.43;12.05;;;;;;;;;;5074246;28;20557;-68
2021/04/30 04:01:49;;;;;;;19.35;13.00;;;;;;;;;;5074077;28;20107;-68
2021/04/30 04:04:14;;;;;;;19.80;13.85;;;;;;;;;;5073933;28;20024;-68
2021/04/30 04:06:40;;;;;;;19.13;13.55;;;;;;;;;;5073738;28;20016;-68
2021/04/30 04:09:05;;;;;;;21.63;14.63;;;;;;;;;;5074054;28;20489;-67
2021/04/30 04:11:31;;;;;;;20.25;13.55;;;;;;;;;;5074204;28;20443;-68
2021/04/30 04:13:56;;;;;;;20.95;13.80;;;;;;;;;;5074017;28;20027;-68
2021/04/30 04:16:22;;;;;;;19.38;12.95;;;;;;;;;;5072403;28;20466;-68
2021/04/30 04:18:47;;;;;;;19.88;13.60;;;;;;;;;;5072557;28;20127;-70
2021/04/30 04:21:13;;;;;;;21.17;12.77;;;;;;;;;;5072574;28;20028;-69
2021/04/30 04:23:39;;;;;;;20.25;13.85;;;;;;;;;;5073477;28;20025;-69
2021/04/30 04:26:05;;;;;;;16.33;11.00;;;;;;;;;;5073588;28;20069;-69
2021/04/30 04:28:30;;;;;;;16.77;11.95;;;;;;;;;;5072287;28;20029;-68
2021/04/30 04:30:58;;;;;;;19.90;14.25;;;;;;;;;;5073242;28;20032;-68
2021/04/30 04:33:24;;;;;;;20.58;14.02;;;;;;;;;;5072577;28;20122;-69
2021/04/30 04:35:50;;;;;;;16.33;11.95;;;;;;;;;;5073442;28;20016;-68
2021/04/30 04:38:15;;;;;;;20.75;15.00;;;;;;;;;;5088985;28;20036;-69
2021/04/30 04:40:41;;;;;;;19.65;13.65;;;;;;;;;;5073183;28;20028;-68
2021/04/30 04:43:07;;;;;;;20.25;14.98;;;;;;;;;;5072641;28;20046;-68
2021/04/30 04:45:32;;;;;;;22.20;15.48;;;;;;;;;;5073163;28;20077;-69
2021/04/30 04:47:58;;;;;;;22.52;15.13;;;;;;;;;;5073100;28;20021;-69
2021/04/30 04:50:23;;;;;;;25.67;14.90;;;;;;;;;;5073320;28;20024;-69
2021/04/30 04:52:49;;;;;;;18.85;13.68;;;;;;;;;;5088844;28;20024;-69
2021/04/30 04:55:17;;;;;;;23.40;14.75;;;;;;;;;;5073194;28;20066;-69
2021/04/30 04:57:43;;;;;;;22.10;14.25;;;;;;;;;;5073136;28;20074;-68
2021/04/30 05:00:09;;;;;;;21.55;13.98;;;;;;;;;;5072110;28;20046;-69
2021/04/30 05:02:34;;;;;;;22.80;15.35;;;;;;;;;;5072043;28;20081;-69
2021/04/30 05:05:00;;;;;;;20.67;15.02;;;;;;;;;;5073140;28;20021;-70
2021/04/30 05:07:26;;;;;;;24.15;15.77;;;;;;;;;;5073021;28;20470;-70
2021/04/30 05:09:51;;;;;;;22.00;15.68;;;;;;;;;;5088877;28;20016;-73
2021/04/30 05:12:17;;;;;;;22.45;15.00;;;;;;;;;;5073246;28;20067;-73
2021/04/30 05:14:42;;;;;;;20.20;15.00;;;;;;;;;;5073190;28;20028;-73
2021/04/30 05:17:08;;;;;;;24.15;16.73;;;;;;;;;;5072158;28;20064;-73
2021/04/30 05:19:34;;;;;;;22.75;15.38;;;;;;;;;;5073246;28;20025;-73
2021/04/30 05:22:01;;;;;;;20.10;14.30;;;;;;;;;;5073349;28;20033;-71
2021/04/30 05:24:26;;;;;;;17.83;11.75;;;;;;;;;;5072470;28;20458;-72
2021/04/30 05:26:52;;;;;;;16.58;11.10;;;;;;;;;;5072994;28;20028;-72
2021/04/30 05:29:18;;;;;;;16.90;11.15;;;;;;;;;;5073157;28;20020;-72
2021/04/30 05:31:44;;;;;;;15.48;10.60;;;;;;;;;;5073052;28;20027;-72
2021/04/30 05:34:09;;;;;;;25.58;16.40;;;;;;;;;;5072783;28;20095;-72
2021/04/30 05:36:35;;;;;;;20.70;14.20;;;;;;;;;;5072616;28;20044;-72
2021/04/30 05:39:00;;;;;;;16.98;10.25;;;;;;;;;;5071337;28;20108;-72
2021/04/30 05:41:26;;;;;;;16.30;12.00;;;;;;;;;;5072693;28;20025;-72
2021/04/30 05:43:51;;;;;;;17.20;10.20;;;;;;;;;;5073151;28;20098;-72
2021/04/30 05:46:16;;;;;;;17.17;11.80;;;;;;;;;;5075250;28;20028;-72
2021/04/30 05:48:42;;;;;;;16.98;10.35;;;;;;;;;;5076213;28;20028;-72
2021/04/30 05:51:08;;;;;;;13.95;9.63;;;;;;;;;;5076268;28;20396;-72
2021/04/30 05:53:33;;;;;;;12.30;8.85;;;;;;;;;;5076392;28;20025;-72
2021/04/30 05:55:59;;;;;;;10.35;8.13;;;;;;;;;;5093143;28;20036;-72
2021/04/30 05:58:24;;;;;;;10.57;7.90;;;;;;;;;;5096842;28;20027;-71
2021/04/30 06:00:51;;;;;;;8.18;6.97;;;;;;;;;;5095798;28;20032;-71
2021/04/30 06:03:16;;;;;;;10.43;7.45;;;;;;;;;;5097000;28;20051;-71
2021/04/30 06:05:42;;;;;;;8.20;6.72;;;;;;;;;;5095506;28;20437;-71
2021/04/30 06:08:07;;;;;;;7.63;5.78;;;;;;;;;;5096651;28;20015;-71
2021/04/30 06:10:33;;;;;;;6.50;5.80;;;;;;;;;;5096585;28;20028;-71
2021/04/30 06:13:05;;;;;;;6.05;5.43;;;;;;;;;;5096590;28;20024;-71
2021/04/30 06:15:30;;;;;;;9.40;5.25;;;;;;;;;;5096373;28;20035;-71
2021/04/30 06:17:56;;;;;;;6.75;5.40;;;;;;;;;;5096103;28;20020;-71
2021/04/30 06:20:21;;;;;;;4.97;4.50;;;;;;;;;;5096069;28;20028;-71
2021/04/30 06:22:48;;;;;;;5.97;4.97;;;;;;;;;;5096299;28;20462;-71
2021/04/30 06:25:13;;;;;;;6.75;5.13;;;;;;;;;;5094742;28;20032;-71
2021/04/30 06:27:39;;;;;;;6.78;4.40;;;;;;;;;;5096272;28;20020;-70
2021/04/30 06:30:05;;;;;;;3.88;3.50;;;;;;;;;;5096116;28;20103;-71
2021/04/30 06:32:30;;;;;;;4.05;3.40;;;;;;;;;;5096296;28;20014;-71
2021/04/30 06:34:56;;;;;;;6.05;4.47;;;;;;;;;;5096087;28;20032;-70
2021/04/30 06:37:25;;;;;;;4.38;4.00;;;;;;;;;;5095978;28;20027;-70
2021/04/30 06:39:51;;;;;;;4.00;3.70;;;;;;;;;;5094694;28;20039;-71
2021/04/30 06:42:18;;;;;;;3.42;3.13;;;;;;;;;;5095448;28;20259;-70
2021/04/30 06:44:43;;;;;;;4.25;3.78;;;;;;;;;;5094740;28;20093;-70
2021/04/30 06:47:09;;;;;;;3.45;3.17;;;;;;;;;;5095955;28;20028;-70
2021/04/30 06:49:34;;;;;;;3.92;3.63;;;;;;;;;;5111568;28;20493;-70
2021/04/30 06:52:00;;;;;;;4.85;3.42;;;;;;;;;;5095998;28;20012;-70
2021/04/30 06:54:25;;;;;;;4.70;4.10;;;;;;;;;;5096169;28;20020;-70
2021/04/30 06:56:51;;;;;;;4.03;3.67;;;;;;;;;;5093929;28;20047;-70
2021/04/30 06:59:16;;;;;;;3.88;3.58;;;;;;;;;;5095194;28;20032;-71
2021/04/30 07:01:42;;;;;;;7.05;4.10;;;;;;;;;;5095440;28;20488;-71
2021/04/30 07:04:08;;;;;;;3.70;3.40;;;;;;;;;;5095353;28;20062;-70
2021/04/30 07:06:34;;;;;;;4.57;4.18;;;;;;;;;;5095557;28;20438;-71
2021/04/30 07:09:00;;;;;;;4.57;4.18;;;;;;;;;;5095254;28;20028;-71
2021/04/30 07:11:25;;;;;;;4.03;3.53;;;;;;;;;;5095064;28;20438;-71
2021/04/30 07:13:51;;;;;;;4.53;3.60;;;;;;;;;;5095377;28;20032;-71
2021/04/30 07:16:16;;;;;;;4.90;3.45;;;;;;;;;;5093899;28;20019;-71
2021/04/30 07:18:42;;;;;;;4.00;3.30;;;;;;;;;;5095050;28;20028;-71
2021/04/30 07:21:07;;;;;;;3.72;3.42;;;;;;;;;;5095254;28;20074;-71
2021/04/30 07:23:33;;;;;;;4.90;3.38;;;;;;;;;;5093975;28;20032;-71
2021/04/30 07:25:59;;;;;;;4.82;3.88;;;;;;;;;;5095275;28;20016;-71
2021/04/30 07:28:25;;;;;;;3.72;3.38;;;;;;;;;;5095314;28;20024;-71
2021/04/30 07:30:51;;;;;;;4.30;3.67;;;;;;;;;;5093746;28;20042;-71
2021/04/30 07:33:16;;;;;;;4.53;3.92;;;;;;;;;;5095036;28;20024;-71
2021/04/30 07:35:42;;;;;;;6.00;3.47;;;;;;;;;;5093724;28;20492;-71
2021/04/30 07:38:08;;;;;;;4.45;3.20;;;;;;;;;;5094685;28;20486;-71
2021/04/30 07:40:34;;;;;;;3.75;3.42;;;;;;;;;;5093733;28;20077;-71
2021/04/30 07:42:59;;;;;;;4.22;3.75;;;;;;;;;;5094684;28;20437;-71
2021/04/30 07:45:25;;;;;;;4.57;2.97;;;;;;;;;;5094718;28;20032;-71
2021/04/30 07:47:50;;;;;;;1.50;1.40;;;;;;;;;;5094705;28;20024;-71
2021/04/30 07:50:16;;;;;;;4.63;3.83;;;;;;;;;;5093306;28;20107;-71
2021/04/30 07:52:41;;;;;;;3.67;3.38;;;;;;;;;;5093181;28;20028;-71
2021/04/30 07:55:07;;;;;;;6.35;3.50;;;;;;;;;;5076568;28;20470;-71
2021/04/30 07:57:34;;;;;;;3.63;3.33;;;;;;;;;;5093296;28;20039;-70
2021/04/30 08:00:00;;;;;;;3.60;3.30;;;;;;;;;;5093264;28;20016;-70
2021/04/30 08:02:26;;;;;;;3.88;3.40;;;;;;;;;;5094355;28;20031;-69
2021/04/30 08:04:51;;;;;;;4.00;3.58;;;;;;;;;;5094271;28;20024;-70
2021/04/30 08:07:17;;;;;;;4.03;3.63;;;;;;;;;;5093105;28;20020;-70
2021/04/30 08:09:42;;;;;;;3.40;3.10;;;;;;;;;;5094135;28;20092;-71
2021/04/30 08:12:08;;;;;;;5.35;3.70;;;;;;;;;;5094150;28;20493;-70
2021/04/30 08:14:34;;;;;;;4.13;3.70;;;;;;;;;;5094422;28;20028;-70
2021/04/30 08:16:59;;;;;;;5.25;4.75;;;;;;;;;;5094244;28;20043;-70
2021/04/30 08:19:26;;;;;;;5.25;4.40;;;;;;;;;;5093192;28;20024;-70
2021/04/30 08:21:52;;;;;;;6.65;4.38;;;;;;;;;;5093078;28;20028;-71
2021/04/30 08:24:18;;;;;;;6.53;4.20;;;;;;;;;;5093900;28;20012;-71
2021/04/30 08:26:44;;;;;;;7.03;4.93;;;;;;;;;;5094020;28;20083;-71
2021/04/30 08:29:09;;;;;;;6.30;4.68;;;;;;;;;;5092482;28;20478;-71
2021/04/30 08:31:35;;;;;;;7.20;4.57;;;;;;;;;;5093741;28;20031;-71
2021/04/30 08:34:00;;;;;;;7.90;4.68;;;;;;;;;;5093869;28;20023;-71
2021/04/30 08:36:26;;;;;;;10.48;5.50;;;;;;;;;;5092944;28;20054;-71
2021/04/30 08:38:51;;;;;;;9.07;5.63;;;;;;;;;;5093801;28;20020;-71
2021/04/30 08:41:18;;;;;;;8.85;5.38;;;;;;;;;;5093741;28;20069;-71
2021/04/30 08:43:44;;;;;;;4.85;2.95;;;;;;;;;;5093488;28;20547;-71
2021/04/30 08:46:11;;;;;;;3.90;3.13;;;;;;;;;;5092671;28;20039;-71
2021/04/30 08:48:36;;;;;;;6.60;5.43;;;;;;;;;;5093862;28;20020;-71
2021/04/30 08:51:02;;;;;;;5.13;4.13;;;;;;;;;;5093663;28;20106;-71
2021/04/30 08:53:27;;;;;;;7.10;5.55;;;;;;;;;;5093841;28;20100;-71
2021/04/30 08:55:54;;;;;;;8.63;5.45;;;;;;;;;;5093825;28;20082;-71
2021/04/30 08:58:26;;;;;;;10.63;5.55;;;;;;;;;;5093931;28;20024;-71
2021/04/30 09:00:55;;;;;;;4.13;3.72;;;;;;;;;;5093291;28;20036;-71
2021/04/30 09:03:21;;;;;;;5.18;4.10;;;;;;;;;;5093499;28;20032;-71
2021/04/30 09:05:48;;;;;;;7.30;5.32;;;;;;;;;;5093575;28;20032;-71
2021/04/30 09:08:13;;;;;;;1.95;1.48;;;;;;;;;;5093533;28;20049;-71
2021/04/30 09:10:42;;;;;;;3.50;2.88;;;;;;;;;;5093511;28;20458;-71
2021/04/30 09:13:08;;;;;;;2.20;2.10;;;;;;;;;;5093484;28;20420;-71
2021/04/30 09:15:34;;;;;;;9.27;1.92;;;;;;;;;;5093249;28;20103;-71
2021/04/30 09:18:19;;;;;;;5.32;4.07;;;;;;;;;;5092894;28;20117;-71
2021/04/30 09:20:47;;;;;;;6.45;4.32;;;;;;;;;;5097197;28;20031;-71
2021/04/30 09:23:31;;;;;;;4.63;4.22;;;;;;;;;;5096179;28;20024;-71
2021/04/30 09:25:57;;;;;;;5.75;2.03;;;;;;;;;;5097492;28;20024;-71
2021/04/30 09:28:23;;;;;;;2.58;1.88;;;;;;;;;;5097535;28;20020;-71
2021/04/30 09:30:49;;;;;;;4.03;2.80;;;;;;;;;;5097401;28;20031;-71
2021/04/30 09:33:18;;;;;;;5.13;4.22;;;;;;;;;;5079540;28;20016;-71
2021/04/30 09:35:44;;;;;;;2.83;2.58;;;;;;;;;;5095870;28;20085;-71
2021/04/30 09:38:13;;;;;;;5.85;4.45;;;;;;;;;;5097068;28;20024;-71
2021/04/30 09:40:39;;;;;;;2.67;2.43;;;;;;;;;;5097153;28;20073;-71
2021/04/30 09:43:05;;;;;;;7.53;3.03;;;;;;;;;;5095508;28;20643;-72
2021/04/30 09:45:32;;;;;;;2.72;2.50;;;;;;;;;;5096964;28;20362;-71
2021/04/30 09:48:00;;;;;;;1.83;1.45;;;;;;;;;;5097152;28;20035;-72
2021/04/30 09:50:27;;;;;;;4.13;3.20;;;;;;;;;;5095501;28;20031;-71
2021/04/30 09:52:56;;;;;;;2.20;1.48;;;;;;;;;;5096912;28;20043;-71
2021/04/30 09:55:22;;;;;;;8.45;3.45;;;;;;;;;;5095344;28;20390;-72
2021/04/30 09:57:49;;;;;;;2.17;2.00;;;;;;;;;;5096962;28;20032;-71
2021/04/30 10:00:15;;;;;;;2.22;2.08;;;;;;;;;;5095445;28;20487;-72
2021/04/30 10:02:44;;;;;;;5.32;4.60;;;;;;;;;;5096742;28;20061;-71
2021/04/30 10:05:10;;;;;;;4.13;3.60;;;;;;;;;;5095518;28;20039;-72
2021/04/30 10:07:40;;;;;;;4.57;4.10;;;;;;;;;;5078498;28;20016;-71
2021/04/30 10:10:08;;;;;;;6.25;5.05;;;;;;;;;;5096362;28;20035;-71
2021/04/30 10:12:34;;;;;;;5.60;4.35;;;;;;;;;;5096361;28;20027;-70
2021/04/30 10:15:00;;;;;;;2.72;2.00;;;;;;;;;;5096472;28;20026;-71
2021/04/30 10:17:26;;;;;;;1.95;1.70;;;;;;;;;;5096601;28;20025;-72
2021/04/30 10:19:52;;;;;;;6.90;3.47;;;;;;;;;;5096617;28;20077;-72
2021/04/30 10:22:19;;;;;;;5.22;3.72;;;;;;;;;;5096263;28;20440;-72
2021/04/30 10:24:46;;;;;;;1.90;1.80;;;;;;;;;;5095948;28;20535;-71
2021/04/30 10:27:15;;;;;;;5.00;2.88;;;;;;;;;;5096229;28;20024;-71
2021/04/30 10:29:41;;;;;;;5.18;4.15;;;;;;;;;;5096396;28;20047;-71
2021/04/30 10:32:09;;;;;;;5.40;4.57;;;;;;;;;;5095322;28;20447;-71
2021/04/30 10:34:41;;;;;;;5.60;4.10;;;;;;;;;;5096260;28;20537;-72
2021/04/30 10:37:08;;;;;;;6.22;4.63;;;;;;;;;;5096044;28;20046;-72
2021/04/30 10:39:36;;;;;;;3.15;2.47;;;;;;;;;;5095084;28;20119;-72
2021/04/30 10:42:09;;;;;;;5.85;4.30;;;;;;;;;;5094871;28;20222;-72
2021/04/30 10:44:39;;;;;;;4.75;4.10;;;;;;;;;;5094943;28;20032;-72
2021/04/30 10:47:05;;;;;;;3.22;2.50;;;;;;;;;;5095816;28;20024;-71
2021/04/30 10:49:30;;;;;;;3.67;3.38;;;;;;;;;;5095805;28;20024;-71
2021/04/30 10:52:20;;;;;;;5.63;4.13;;;;;;;;;;5095556;28;20065;-72
2021/04/30 10:54:58;;;;;;;22.53;4.13;;;;;;;;;;5095822;28;20032;-71
2021/04/30 10:57:24;;;;;;;47.53;23.50;;;;;;;;;;5096202;28;20266;-71
2021/04/30 10:59:51;;;;;;;41.63;28.65;;;;;;;;;;5094566;28;20469;-71
2021/04/30 11:02:36;;;;;;;26.75;16.30;;;;;;;;;;5095597;28;20511;-71
2021/04/30 11:05:10;;;;;;;22.05;15.77;;;;;;;;;;5094675;28;20032;-71
2021/04/30 11:07:54;;;;;;;10.77;5.68;;;;;;;;;;5095854;28;20024;-71
2021/04/30 11:13:07;;;;;;;5.82;4.60;;;;;;;;;;5093906;28;20081;-71
2021/04/30 11:15:54;;;;;;;7.70;4.85;;;;;;;;;;5095189;28;20513;-71
2021/04/30 11:18:22;;;;;;;10.75;6.95;;;;;;;;;;5095185;28;20072;-71
2021/04/30 11:20:56;;;;;;;12.43;7.22;;;;;;;;;;5095545;28;20028;-71
2021/04/30 11:23:23;;;;;;;14.30;6.22;;;;;;;;;;5093961;28;20031;-71
2021/04/30 11:25:58;;;;;;;7.40;4.30;;;;;;;;;;5095394;28;20099;-71
2021/04/30 11:28:31;;;;;;;5.57;3.10;;;;;;;;;;5093758;28;20028;-71
2021/04/30 11:31:18;;;;;;;11.20;6.60;;;;;;;;;;5094079;28;20047;-71
2021/04/30 11:33:45;;;;;;;5.53;3.55;;;;;;;;;;5087891;28;20071;-68
2021/04/30 11:36:12;;;;;;;12.68;9.52;;;;;;;;;;5093475;28;20420;-71
2021/04/30 11:38:39;;;;;;;10.00;8.20;;;;;;;;;;5094682;28;20545;-71
2021/04/30 11:41:10;;;;;;;11.68;7.75;;;;;;;;;;5076602;28;20039;-71
2021/04/30 11:43:36;;;;;;;13.00;8.25;;;;;;;;;;5094710;28;20055;-71
2021/04/30 11:46:02;;;;;;;15.75;11.95;;;;;;;;;;5094574;28;20031;-71
2021/04/30 11:48:28;;;;;;;9.73;6.20;;;;;;;;;;5093399;28;20032;-71
2021/04/30 11:51:01;;;;;;;12.05;7.22;;;;;;;;;;5094399;28;20125;-71
2021/04/30 11:53:27;;;;;;;16.52;10.15;;;;;;;;;;5094375;28;20024;-71
2021/04/30 11:55:53;;;;;;;14.63;11.20;;;;;;;;;;5094336;28;20032;-71
2021/04/30 11:58:19;;;;;;;8.45;6.82;;;;;;;;;;5094229;28;20050;-71
2021/04/30 12:00:51;;;;;;;3.00;2.60;;;;;;;;;;5093027;28;20473;-70
2021/04/30 12:03:17;;;;;;;9.55;7.32;;;;;;;;;;5094430;28;20028;-71
2021/04/30 12:05:44;;;;;;;14.55;9.70;;;;;;;;;;5093969;28;20490;-71
2021/04/30 12:08:11;;;;;;;12.38;7.65;;;;;;;;;;5092552;28;20020;-71
2021/04/30 12:10:36;;;;;;;5.90;4.72;;;;;;;;;;5094183;28;20016;-71
2021/04/30 12:13:06;;;;;;;3.80;2.70;;;;;;;;;;5092435;28;20501;-71
2021/04/30 12:15:37;;;;;;;5.80;3.92;;;;;;;;;;5093921;28;20059;-71
2021/04/30 12:18:04;;;;;;;1.65;1.55;;;;;;;;;;5093914;28;20455;-71
2021/04/30 12:20:31;;;;;;;5.78;3.65;;;;;;;;;;5092488;28;20483;-70
2021/04/30 12:23:00;;;;;;;5.22;4.55;;;;;;;;;;5093808;28;20107;-70
2021/04/30 12:25:38;;;;;;;4.47;4.00;;;;;;;;;;5093740;28;20028;-71
2021/04/30 12:28:12;;;;;;;10.18;6.00;;;;;;;;;;5093676;28;20274;-71
2021/04/30 12:30:38;;;;;;;6.97;3.90;;;;;;;;;;5092479;28;20028;-71
2021/04/30 12:33:04;;;;;;;6.78;4.28;;;;;;;;;;5092162;28;20016;-71
2021/04/30 12:35:29;;;;;;;11.23;6.80;;;;;;;;;;5092136;28;20032;-71
2021/04/30 12:37:55;;;;;;;15.57;11.30;;;;;;;;;;5092267;28;20077;-71
2021/04/30 12:40:28;;;;;;;13.68;9.05;;;;;;;;;;5092709;28;20062;-71
2021/04/30 12:42:54;;;;;;;8.32;6.60;;;;;;;;;;5093242;28;20117;-71
2021/04/30 12:45:20;;;;;;;7.85;5.22;;;;;;;;;;5094116;28;20123;-71
2021/04/30 12:47:47;;;;;;;11.05;7.68;;;;;;;;;;5094025;28;20066;-71
2021/04/30 12:50:17;;;;;;;7.03;4.55;;;;;;;;;;5093718;28;20012;-71
2021/04/30 12:52:46;;;;;;;7.97;4.50;;;;;;;;;;5092647;28;20470;-71
2021/04/30 12:55:22;;;;;;;4.28;3.83;;;;;;;;;;5091757;28;20547;-72
2021/04/30 12:58:02;;;;;;;5.50;3.78;;;;;;;;;;5093941;28;20089;-72
2021/04/30 13:00:29;;;;;;;4.45;3.60;;;;;;;;;;5092513;28;20122;-72
2021/04/30 13:02:54;;;;;;;3.10;2.80;;;;;;;;;;5093569;28;20081;-72
2021/04/30 13:05:21;;;;;;;3.85;2.55;;;;;;;;;;5093272;28;20036;-72
2021/04/30 13:07:48;;;;;;;2.00;1.67;;;;;;;;;;5092523;28;20091;-72
2021/04/30 13:10:24;;;;;;;2.65;2.33;;;;;;;;;;5093392;28;20024;-72
2021/04/30 13:13:03;;;;;;;4.45;3.00;;;;;;;;;;5092592;28;20052;-72
2021/04/30 13:15:29;;;;;;;4.30;2.78;;;;;;;;;;5092125;28;20028;-72
2021/04/30 13:17:56;;;;;;;3.70;2.65;;;;;;;;;;5092986;28;20028;-72
2021/04/30 13:20:27;;;;;;;2.42;2.15;;;;;;;;;;5092215;28;20036;-72
2021/04/30 13:23:04;;;;;;;1.45;1.35;;;;;;;;;;5092057;28;20039;-72
2021/04/30 13:25:30;;;;;;;2.50;2.13;;;;;;;;;;5091815;28;20107;-71
2021/04/30 13:27:55;;;;;;;3.38;1.65;;;;;;;;;;5093478;28;20020;-71
2021/04/30 13:30:38;;;;;;;2.10;1.40;;;;;;;;;;5093270;28;20501;-71
2021/04/30 13:33:12;;;;;;;2.28;2.08;;;;;;;;;;5092941;28;20520;-71
2021/04/30 13:35:38;;;;;;;2.90;2.50;;;;;;;;;;5093026;28;20122;-72
2021/04/30 13:38:03;;;;;;;3.45;3.15;;;;;;;;;;5093484;28;20063;-72
2021/04/30 13:40:29;;;;;;;3.22;2.85;;;;;;;;;;5093352;28;20028;-72
2021/04/30 13:42:58;;;;;;;3.78;3.47;;;;;;;;;;5092671;28;20078;-72
2021/04/30 13:45:24;;;;;;;5.47;2.95;;;;;;;;;;5091783;28;20024;-72
2021/04/30 13:47:51;;;;;;;5.55;3.58;;;;;;;;;;5093422;28;20020;-72
2021/04/30 13:50:21;;;;;;;13.27;9.30;;;;;;;;;;5092727;28;20040;-72
2021/04/30 13:52:46;;;;;;;13.68;8.77;;;;;;;;;;5092787;28;20528;-72
2021/04/30 13:55:12;;;;;;;5.60;4.53;;;;;;;;;;5091849;28;20028;-72
2021/04/30 13:57:37;;;;;;;5.13;2.35;;;;;;;;;;5093253;28;20032;-72
2021/04/30 14:00:07;;;;;;;1.75;1.65;;;;;;;;;;5093211;28;20028;-72
2021/04/30 14:02:38;;;;;;;6.40;4.78;;;;;;;;;;5092938;28;20509;-72
2021/04/30 14:05:03;;;;;;;2.72;2.30;;;;;;;;;;5094072;28;20031;-72
2021/04/30 14:07:28;;;;;;;2.60;1.75;;;;;;;;;;5096746;28;20027;-72
2021/04/30 14:09:54;;;;;;;4.50;2.60;;;;;;;;;;5096603;28;20351;-72
2021/04/30 14:12:19;;;;;;;3.50;3.20;;;;;;;;;;5096726;28;20058;-72
2021/04/30 14:14:45;;;;;;;7.38;4.88;;;;;;;;;;5096689;28;20032;-72
2021/04/30 14:17:10;;;;;;;4.78;4.10;;;;;;;;;;5095144;28;20054;-72
2021/04/30 14:19:36;;;;;;;4.00;3.60;;;;;;;;;;5095434;28;20480;-71
2021/04/30 14:22:02;;;;;;;3.70;3.40;;;;;;;;;;5094838;28;20027;-72
2021/04/30 14:24:29;;;;;;;5.57;3.20;;;;;;;;;;5096487;28;20442;-72
2021/04/30 14:26:55;;;;;;;4.35;3.05;;;;;;;;;;5096510;28;20042;-72
2021/04/30 14:29:20;;;;;;;4.97;3.35;;;;;;;;;;5095169;28;20028;-72
2021/04/30 14:31:45;;;;;;;4.43;3.40;;;;;;;;;;5094677;28;20323;-71